EVA637 KSEA-RCTP
Flight info
| Callsign | EVA637 |
|---|---|
| Flight time | N/A |
| Altitude | 30000 |
| Route | BANGR9 ARRIE DCT TOU DCT DOLFF DCT PRETY DCT 50N140W/N0493F320 52N150W 53N160W DCT RIZON DCT ADK DCT 50N176E/N0493F340 46N170E 39N160E 34N150E/N0487F360 29N140E DCT CANAI V75 TOPAT/N0483F380 V75 NHC V91 MJC R595 GRACE GRACE1A |
| Aircraft | B77L/H-SDE1E2E3FGHIJ2J3J4J5M1RWXY/LB1D1 |
Departure
| Time | 2026-05-04 05:01 |
|---|---|
| Airport | Seattle–Tacoma International Airport (KSEA) |
Arrival
| Time | N/A |
|---|---|
| Airport | Taiwan Taoyuan International Airport (RCTP) |
| Time | Latitude | Longitude | Altitude | Speed | Heading |
|---|---|---|---|---|---|
| 2026-05-04 04:32 | 47.45211 | -122.30366 | 419 ft | 0 kts | 90° |
| 2026-05-04 04:49 | 47.45211 | -122.30371 | 423 ft | 2 kts | 91° |
| 2026-05-04 04:50 | 47.45212 | -122.30398 | 411 ft | 3 kts | 99° |
| 2026-05-04 04:50 | 47.45216 | -122.30428 | 411 ft | 3 kts | 101° |
| 2026-05-04 04:50 | 47.45218 | -122.30453 | 412 ft | 3 kts | 99° |
| 2026-05-04 04:50 | 47.45222 | -122.30478 | 411 ft | 3 kts | 124° |
| 2026-05-04 04:51 | 47.45233 | -122.30495 | 412 ft | 3 kts | 155° |
| 2026-05-04 04:51 | 47.45251 | -122.30503 | 412 ft | 3 kts | 175° |
| 2026-05-04 04:51 | 47.45266 | -122.30504 | 417 ft | 1 kts | 180° |
| 2026-05-04 04:51 | 47.45267 | -122.30504 | 417 ft | 0 kts | 180° |
| 2026-05-04 04:55 | 47.45212 | -122.30504 | 417 ft | 17 kts | 180° |
| 2026-05-04 04:55 | 47.45129 | -122.30532 | 417 ft | 7 kts | 229° |
| 2026-05-04 04:56 | 47.45089 | -122.30617 | 411 ft | 13 kts | 205° |
| 2026-05-04 04:56 | 47.44963 | -122.30629 | 409 ft | 22 kts | 180° |
| 2026-05-04 04:56 | 47.44806 | -122.30629 | 409 ft | 23 kts | 179° |
| 2026-05-04 04:56 | 47.44646 | -122.30629 | 403 ft | 23 kts | 180° |
| 2026-05-04 04:57 | 47.44487 | -122.30630 | 400 ft | 23 kts | 180° |
| 2026-05-04 04:57 | 47.44324 | -122.30632 | 394 ft | 23 kts | 180° |
| 2026-05-04 04:57 | 47.44165 | -122.30632 | 392 ft | 23 kts | 180° |
| 2026-05-04 04:57 | 47.44008 | -122.30637 | 388 ft | 23 kts | 182° |
| 2026-05-04 04:58 | 47.43848 | -122.30639 | 383 ft | 23 kts | 179° |
| 2026-05-04 04:58 | 47.43688 | -122.30634 | 378 ft | 23 kts | 176° |
| 2026-05-04 04:58 | 47.43537 | -122.30564 | 376 ft | 23 kts | 169° |
| 2026-05-04 04:58 | 47.43376 | -122.30558 | 375 ft | 23 kts | 179° |
| 2026-05-04 04:59 | 47.43261 | -122.30563 | 368 ft | 14 kts | 187° |
| 2026-05-04 04:59 | 47.43194 | -122.30616 | 369 ft | 8 kts | 217° |
| 2026-05-04 04:59 | 47.43160 | -122.30688 | 365 ft | 10 kts | 244° |
| 2026-05-04 04:59 | 47.43143 | -122.30783 | 368 ft | 10 kts | 294° |
| 2026-05-04 05:00 | 47.43210 | -122.30807 | 368 ft | 11 kts | 1° |
| 2026-05-04 05:00 | 47.43455 | -122.30805 | 370 ft | 67 kts | 359° |
| 2026-05-04 05:00 | 47.45200 | -122.30792 | 419 ft | 176 kts | 1° |
| 2026-05-04 05:01 | 47.46502 | -122.30785 | 717 ft | 188 kts | 0° |
| 2026-05-04 05:01 | 47.47833 | -122.30787 | 1204 ft | 195 kts | 1° |
| 2026-05-04 05:01 | 47.49132 | -122.30756 | 1755 ft | 191 kts | 1° |
| 2026-05-04 05:01 | 47.50465 | -122.30744 | 2187 ft | 199 kts | 359° |
| 2026-05-04 05:02 | 47.51927 | -122.30817 | 2375 ft | 220 kts | 358° |
| 2026-05-04 05:02 | 47.53530 | -122.30903 | 2682 ft | 236 kts | 358° |
| 2026-05-04 05:02 | 47.55192 | -122.31066 | 3159 ft | 244 kts | 348° |
| 2026-05-04 05:02 | 47.56744 | -122.32175 | 3550 ft | 255 kts | 325° |
| 2026-05-04 05:03 | 47.57942 | -122.34140 | 3965 ft | 263 kts | 296° |
| 2026-05-04 05:03 | 47.58644 | -122.36677 | 4513 ft | 269 kts | 292° |
| 2026-05-04 05:04 | 47.60687 | -122.44500 | 6631 ft | 275 kts | 293° |
| 2026-05-04 05:04 | 47.61393 | -122.47177 | 7292 ft | 277 kts | 292° |
| 2026-05-04 05:04 | 47.62105 | -122.49858 | 7923 ft | 281 kts | 292° |
| 2026-05-04 05:06 | 47.67591 | -122.70306 | 10806 ft | 359 kts | 292° |
| 2026-05-04 05:06 | 47.68536 | -122.73831 | 11118 ft | 374 kts | 292° |
| 2026-05-04 05:06 | 47.69496 | -122.77416 | 11649 ft | 382 kts | 292° |
| 2026-05-04 05:07 | 47.70484 | -122.81112 | 12306 ft | 386 kts | 292° |
| 2026-05-04 05:07 | 47.71478 | -122.84839 | 13015 ft | 389 kts | 292° |
| 2026-05-04 05:07 | 47.72479 | -122.88596 | 13724 ft | 392 kts | 292° |
| 2026-05-04 05:09 | 47.80748 | -123.19843 | 18483 ft | 421 kts | 292° |
| 2026-05-04 05:09 | 47.81816 | -123.23911 | 19006 ft | 423 kts | 293° |
| 2026-05-04 05:10 | 47.82889 | -123.28002 | 19559 ft | 426 kts | 293° |
| 2026-05-04 05:10 | 47.83969 | -123.32124 | 20064 ft | 429 kts | 293° |
| 2026-05-04 05:10 | 47.85055 | -123.36282 | 20560 ft | 432 kts | 293° |
| 2026-05-04 05:10 | 47.86150 | -123.40478 | 21043 ft | 436 kts | 293° |
| 2026-05-04 05:11 | 47.87247 | -123.44689 | 21530 ft | 439 kts | 294° |
| 2026-05-04 05:11 | 47.88444 | -123.48900 | 22016 ft | 440 kts | 299° |
| 2026-05-04 05:11 | 47.89892 | -123.52925 | 22499 ft | 442 kts | 302° |
| 2026-05-04 05:11 | 47.91403 | -123.56943 | 22954 ft | 445 kts | 302° |
| 2026-05-04 05:12 | 47.92930 | -123.60978 | 23436 ft | 449 kts | 302° |
| 2026-05-04 05:12 | 47.94452 | -123.65016 | 23832 ft | 452 kts | 302° |
| 2026-05-04 05:12 | 47.95987 | -123.69117 | 24235 ft | 455 kts | 302° |
| 2026-05-04 05:12 | 47.97527 | -123.73259 | 24630 ft | 457 kts | 302° |
| 2026-05-04 05:13 | 47.99072 | -123.77438 | 25034 ft | 460 kts | 302° |
| 2026-05-04 05:13 | 48.00617 | -123.81635 | 25418 ft | 462 kts | 302° |
| 2026-05-04 05:13 | 48.02173 | -123.85867 | 25772 ft | 465 kts | 302° |
| 2026-05-04 05:13 | 48.03735 | -123.90119 | 26161 ft | 468 kts | 302° |
| 2026-05-04 05:14 | 48.05306 | -123.94402 | 26454 ft | 472 kts | 302° |
| 2026-05-04 05:14 | 48.06885 | -123.98719 | 26848 ft | 473 kts | 302° |
| 2026-05-04 05:14 | 48.08464 | -124.03039 | 27239 ft | 475 kts | 302° |
| 2026-05-04 05:14 | 48.10055 | -124.07399 | 27606 ft | 478 kts | 302° |
| 2026-05-04 05:15 | 48.11649 | -124.11777 | 27979 ft | 480 kts | 302° |
| 2026-05-04 05:15 | 48.13247 | -124.16174 | 28339 ft | 483 kts | 302° |
| 2026-05-04 05:15 | 48.14856 | -124.20605 | 28692 ft | 485 kts | 302° |
| 2026-05-04 05:15 | 48.16468 | -124.25055 | 29013 ft | 487 kts | 302° |
| 2026-05-04 05:16 | 48.18084 | -124.29518 | 29329 ft | 489 kts | 302° |
| 2026-05-04 05:16 | 48.19707 | -124.34011 | 29620 ft | 491 kts | 302° |
| 2026-05-04 05:16 | 48.21336 | -124.38531 | 29823 ft | 495 kts | 302° |
| 2026-05-04 05:16 | 48.22977 | -124.43090 | 29859 ft | 497 kts | 302° |
| 2026-05-04 05:17 | 48.26234 | -124.52166 | 29876 ft | 491 kts | 302° |
| 2026-05-04 05:17 | 48.29086 | -124.61498 | 29884 ft | 496 kts | 290° |
| 2026-05-04 05:18 | 48.30353 | -124.71736 | 29892 ft | 504 kts | 276° |
| 2026-05-04 05:18 | 48.30562 | -124.82291 | 29910 ft | 505 kts | 275° |
| 2026-05-04 05:19 | 48.30715 | -124.92847 | 29907 ft | 506 kts | 275° |
| 2026-05-04 05:19 | 48.30905 | -125.03358 | 29909 ft | 507 kts | 275° |
| 2026-05-04 05:20 | 48.31119 | -125.13970 | 29915 ft | 508 kts | 275° |
| 2026-05-04 05:20 | 48.31332 | -125.24590 | 29912 ft | 508 kts | 275° |
| 2026-05-04 05:21 | 48.31532 | -125.35205 | 29914 ft | 508 kts | 275° |
| 2026-05-04 05:21 | 48.31720 | -125.45817 | 29916 ft | 508 kts | 275° |
| 2026-05-04 05:22 | 48.31898 | -125.56433 | 29919 ft | 508 kts | 275° |
| 2026-05-04 05:22 | 48.32064 | -125.66968 | 29917 ft | 508 kts | 275° |
| 2026-05-04 05:23 | 48.32223 | -125.77587 | 29920 ft | 508 kts | 275° |
| 2026-05-04 05:23 | 48.32347 | -125.86416 | 29919 ft | 507 kts | 275° |
| 2026-05-04 05:24 | 48.32488 | -125.97021 | 29917 ft | 507 kts | 274° |
| 2026-05-04 05:24 | 48.32619 | -126.07620 | 29920 ft | 507 kts | 274° |
| 2026-05-04 05:25 | 48.32740 | -126.18241 | 29927 ft | 507 kts | 274° |
| 2026-05-04 05:25 | 48.32851 | -126.28846 | 29927 ft | 507 kts | 274° |
| 2026-05-04 05:26 | 48.32953 | -126.39458 | 29936 ft | 507 kts | 274° |
| 2026-05-04 05:26 | 48.33044 | -126.50001 | 29930 ft | 508 kts | 274° |
| 2026-05-04 05:28 | 48.33314 | -126.92423 | 29947 ft | 508 kts | 274° |
| 2026-05-04 05:29 | 48.33357 | -127.03041 | 29936 ft | 508 kts | 273° |
| 2026-05-04 05:29 | 48.33390 | -127.13669 | 29935 ft | 508 kts | 273° |
| 2026-05-04 05:31 | 48.33426 | -127.56181 | 29954 ft | 509 kts | 273° |
| 2026-05-04 05:32 | 48.33411 | -127.66821 | 29955 ft | 509 kts | 272° |
| 2026-05-04 05:33 | 48.33370 | -127.82708 | 29962 ft | 509 kts | 272° |
| 2026-05-04 05:33 | 48.33332 | -127.93349 | 29959 ft | 509 kts | 273° |
| 2026-05-04 05:34 | 48.33940 | -128.03905 | 29962 ft | 504 kts | 283° |
| 2026-05-04 05:34 | 48.35610 | -128.14093 | 29968 ft | 502 kts | 288° |
| 2026-05-04 05:35 | 48.37394 | -128.24250 | 29964 ft | 502 kts | 288° |
| 2026-05-04 05:35 | 48.39142 | -128.34434 | 29965 ft | 503 kts | 287° |
| 2026-05-04 05:36 | 48.40860 | -128.44647 | 29967 ft | 503 kts | 287° |
| 2026-05-04 05:36 | 48.42552 | -128.54818 | 29973 ft | 503 kts | 287° |
| 2026-05-04 05:37 | 48.44246 | -128.65055 | 29975 ft | 504 kts | 287° |
| 2026-05-04 05:37 | 48.45933 | -128.75305 | 29977 ft | 504 kts | 287° |
| 2026-05-04 05:38 | 48.48441 | -128.90647 | 29978 ft | 504 kts | 287° |
| 2026-05-04 05:38 | 48.50106 | -129.00911 | 29981 ft | 504 kts | 287° |
| 2026-05-04 05:39 | 48.52588 | -129.16330 | 29988 ft | 504 kts | 287° |
| 2026-05-04 05:40 | 48.55049 | -129.31763 | 29995 ft | 504 kts | 286° |
| 2026-05-04 05:40 | 48.56678 | -129.42054 | 29998 ft | 504 kts | 286° |
| 2026-05-04 05:41 | 48.58298 | -129.52359 | 29997 ft | 504 kts | 286° |
| 2026-05-04 05:41 | 48.59898 | -129.62599 | 30001 ft | 504 kts | 286° |
| 2026-05-04 05:42 | 48.61502 | -129.72930 | 30006 ft | 504 kts | 286° |
| 2026-05-04 05:42 | 48.63093 | -129.83245 | 30008 ft | 504 kts | 285° |
| 2026-05-04 05:43 | 48.64679 | -129.93590 | 30013 ft | 504 kts | 285° |
| 2026-05-04 05:45 | 48.70912 | -130.34922 | 30026 ft | 504 kts | 285° |
| 2026-05-04 05:47 | 48.77002 | -130.76396 | 30037 ft | 504 kts | 285° |
| 2026-05-04 05:47 | 48.78493 | -130.86725 | 30046 ft | 504 kts | 284° |
| 2026-05-04 05:48 | 48.79983 | -130.97107 | 30047 ft | 504 kts | 284° |
| 2026-05-04 05:48 | 48.81462 | -131.07497 | 30050 ft | 504 kts | 284° |
| 2026-05-04 05:49 | 48.82934 | -131.17900 | 30064 ft | 504 kts | 284° |
| 2026-05-04 05:49 | 48.84397 | -131.28312 | 30074 ft | 503 kts | 284° |
| 2026-05-04 05:51 | 48.90134 | -131.69883 | 30071 ft | 503 kts | 284° |
| 2026-05-04 05:52 | 48.91545 | -131.80295 | 30070 ft | 503 kts | 283° |
| 2026-05-04 05:52 | 48.92949 | -131.90725 | 30088 ft | 503 kts | 283° |
| 2026-05-04 05:54 | 48.98459 | -132.32413 | 30103 ft | 503 kts | 283° |
| 2026-05-04 05:55 | 48.99817 | -132.42867 | 30107 ft | 503 kts | 283° |
| 2026-05-04 05:55 | 49.01414 | -132.53204 | 30111 ft | 501 kts | 286° |
| 2026-05-04 05:56 | 49.03164 | -132.63497 | 30115 ft | 501 kts | 286° |
| 2026-05-04 05:56 | 49.04908 | -132.73794 | 30122 ft | 501 kts | 286° |
| 2026-05-04 05:57 | 49.06618 | -132.84089 | 30121 ft | 501 kts | 286° |
| 2026-05-04 05:57 | 49.08308 | -132.94414 | 30128 ft | 501 kts | 285° |
| 2026-05-04 05:58 | 49.09988 | -133.04755 | 30133 ft | 501 kts | 285° |
| 2026-05-04 05:58 | 49.11654 | -133.15056 | 30137 ft | 500 kts | 285° |
| 2026-05-04 05:59 | 49.13303 | -133.25315 | 30135 ft | 500 kts | 285° |
| 2026-05-04 05:59 | 49.14952 | -133.35636 | 30141 ft | 500 kts | 285° |
| 2026-05-04 06:00 | 49.16593 | -133.45975 | 30144 ft | 500 kts | 285° |
| 2026-05-04 06:00 | 49.18224 | -133.56312 | 30144 ft | 500 kts | 285° |
| 2026-05-04 06:01 | 49.19836 | -133.66594 | 30148 ft | 500 kts | 285° |
| 2026-05-04 06:03 | 49.26220 | -134.07961 | 30169 ft | 499 kts | 284° |
| 2026-05-04 06:05 | 49.33209 | -134.54528 | 30178 ft | 498 kts | 283° |
| 2026-05-04 06:06 | 49.34738 | -134.64902 | 30180 ft | 498 kts | 283° |
| 2026-05-04 06:06 | 49.36256 | -134.75271 | 30184 ft | 497 kts | 283° |
| 2026-05-04 06:07 | 49.37762 | -134.85630 | 30190 ft | 497 kts | 283° |
| 2026-05-04 06:07 | 49.39259 | -134.95995 | 30192 ft | 497 kts | 283° |
| 2026-05-04 06:08 | 49.40734 | -135.06280 | 30199 ft | 496 kts | 282° |
| 2026-05-04 06:08 | 49.42211 | -135.16645 | 30202 ft | 496 kts | 282° |
| 2026-05-04 06:09 | 49.43678 | -135.27015 | 30204 ft | 496 kts | 282° |
| 2026-05-04 06:11 | 49.49209 | -135.66770 | 30209 ft | 496 kts | 281° |
| 2026-05-04 06:13 | 49.54835 | -136.08343 | 30218 ft | 497 kts | 281° |
| 2026-05-04 06:14 | 49.59639 | -136.44833 | 30233 ft | 496 kts | 280° |
| 2026-05-04 06:15 | 49.60990 | -136.55267 | 30235 ft | 496 kts | 280° |
| 2026-05-04 06:15 | 49.62332 | -136.65706 | 30237 ft | 496 kts | 279° |
| 2026-05-04 06:16 | 49.63661 | -136.76134 | 30229 ft | 496 kts | 279° |
| 2026-05-04 06:16 | 49.64984 | -136.86581 | 30235 ft | 495 kts | 279° |
| 2026-05-04 06:17 | 49.66286 | -136.96949 | 30239 ft | 495 kts | 279° |
| 2026-05-04 06:17 | 49.67588 | -137.07393 | 30241 ft | 495 kts | 279° |
| 2026-05-04 06:18 | 49.68881 | -137.17849 | 30247 ft | 495 kts | 279° |
| 2026-05-04 06:20 | 49.73940 | -137.59565 | 30250 ft | 494 kts | 278° |
| 2026-05-04 06:21 | 49.77029 | -137.85706 | 30249 ft | 494 kts | 278° |
| 2026-05-04 06:22 | 49.78247 | -137.96169 | 30251 ft | 494 kts | 278° |
| 2026-05-04 06:25 | 49.86501 | -138.69442 | 30254 ft | 494 kts | 276° |
| 2026-05-04 06:26 | 49.87638 | -138.79883 | 30256 ft | 493 kts | 276° |
| 2026-05-04 06:26 | 49.88770 | -138.90385 | 30254 ft | 493 kts | 276° |
| 2026-05-04 06:27 | 49.91563 | -139.16678 | 30256 ft | 494 kts | 276° |
| 2026-05-04 06:28 | 49.92664 | -139.27205 | 30255 ft | 494 kts | 276° |
| 2026-05-04 06:28 | 49.93754 | -139.37727 | 30252 ft | 494 kts | 275° |
| 2026-05-04 06:29 | 49.94834 | -139.48252 | 30251 ft | 494 kts | 275° |
| 2026-05-04 06:29 | 49.95899 | -139.58729 | 30249 ft | 494 kts | 275° |
| 2026-05-04 06:30 | 49.96962 | -139.69283 | 30248 ft | 494 kts | 275° |
| 2026-05-04 06:30 | 49.98015 | -139.79833 | 30246 ft | 494 kts | 275° |
| 2026-05-04 06:31 | 49.99059 | -139.90381 | 30248 ft | 494 kts | 275° |
| 2026-05-04 06:31 | 50.00327 | -140.00883 | 30244 ft | 497 kts | 281° |
| 2026-05-04 06:33 | 50.10317 | -140.41157 | 32235 ft | 497 kts | 287° |
| 2026-05-04 06:34 | 50.12783 | -140.51121 | 32233 ft | 495 kts | 287° |
| 2026-05-04 06:34 | 50.15245 | -140.61111 | 32238 ft | 493 kts | 286° |
| 2026-05-04 06:36 | 50.25011 | -141.01171 | 32239 ft | 495 kts | 285° |
| 2026-05-04 06:37 | 50.27426 | -141.11188 | 32239 ft | 496 kts | 285° |
| 2026-05-04 06:37 | 50.29852 | -141.21298 | 32237 ft | 496 kts | 285° |
| 2026-05-04 06:38 | 50.32273 | -141.31432 | 32235 ft | 497 kts | 285° |
| 2026-05-04 06:40 | 50.41854 | -141.72010 | 32232 ft | 497 kts | 284° |
| 2026-05-04 06:40 | 50.44226 | -141.82176 | 32226 ft | 496 kts | 284° |
| 2026-05-04 06:41 | 50.46589 | -141.92351 | 32227 ft | 496 kts | 284° |
| 2026-05-04 06:41 | 50.48948 | -142.02557 | 32226 ft | 496 kts | 284° |
| 2026-05-04 06:42 | 50.51280 | -142.12696 | 32222 ft | 496 kts | 283° |
| 2026-05-04 06:44 | 50.60584 | -142.53634 | 32208 ft | 497 kts | 283° |
| 2026-05-04 06:44 | 50.62888 | -142.63899 | 32207 ft | 497 kts | 283° |
| 2026-05-04 06:45 | 50.65186 | -142.74181 | 32201 ft | 497 kts | 283° |
| 2026-05-04 06:45 | 50.67473 | -142.84468 | 32204 ft | 498 kts | 282° |
| 2026-05-04 06:46 | 50.69756 | -142.94790 | 32197 ft | 498 kts | 282° |
| 2026-05-04 06:46 | 50.72011 | -143.05034 | 32197 ft | 498 kts | 282° |
| 2026-05-04 06:48 | 50.81019 | -143.46470 | 32187 ft | 499 kts | 281° |
| 2026-05-04 06:50 | 50.89911 | -143.88211 | 32160 ft | 501 kts | 281° |
| 2026-05-04 06:51 | 50.92115 | -143.98692 | 32155 ft | 501 kts | 281° |
| 2026-05-04 06:51 | 50.94309 | -144.09182 | 32152 ft | 502 kts | 280° |
| 2026-05-04 06:52 | 50.96489 | -144.19658 | 32149 ft | 502 kts | 280° |
| 2026-05-04 06:52 | 50.98674 | -144.30209 | 32143 ft | 503 kts | 280° |
| 2026-05-04 06:53 | 51.00851 | -144.40783 | 32134 ft | 504 kts | 280° |
| 2026-05-04 06:53 | 51.03009 | -144.51319 | 32133 ft | 504 kts | 279° |
| 2026-05-04 06:54 | 51.05175 | -144.61953 | 32128 ft | 505 kts | 279° |
| 2026-05-04 06:54 | 51.07331 | -144.72590 | 32128 ft | 505 kts | 279° |
| 2026-05-04 06:55 | 51.09460 | -144.83156 | 32120 ft | 505 kts | 279° |
| 2026-05-04 06:55 | 51.11601 | -144.93835 | 32116 ft | 506 kts | 279° |
| 2026-05-04 06:57 | 51.20065 | -145.36648 | 32089 ft | 507 kts | 278° |
| 2026-05-04 06:58 | 51.21806 | -145.45570 | 32093 ft | 507 kts | 278° |
| 2026-05-04 06:58 | 51.24246 | -145.58153 | 32093 ft | 508 kts | 278° |
| 2026-05-04 06:59 | 51.26310 | -145.68858 | 32086 ft | 508 kts | 277° |
| 2026-05-04 06:59 | 51.28380 | -145.79658 | 32086 ft | 508 kts | 277° |
| 2026-05-04 07:01 | 51.36235 | -146.21207 | 32065 ft | 511 kts | 277° |
| 2026-05-04 07:02 | 51.38269 | -146.32118 | 32049 ft | 511 kts | 276° |
| 2026-05-04 07:02 | 51.40283 | -146.42979 | 32047 ft | 512 kts | 276° |
| 2026-05-04 07:03 | 51.42301 | -146.53938 | 32047 ft | 513 kts | 276° |
| 2026-05-04 07:03 | 51.44312 | -146.64920 | 32047 ft | 514 kts | 276° |
| 2026-05-04 07:04 | 51.46316 | -146.75926 | 32039 ft | 515 kts | 276° |
| 2026-05-04 07:04 | 51.48315 | -146.86974 | 32029 ft | 515 kts | 276° |
| 2026-05-04 07:05 | 51.50291 | -146.97960 | 32023 ft | 516 kts | 275° |
| 2026-05-04 07:05 | 51.52276 | -147.09060 | 32020 ft | 517 kts | 275° |
| 2026-05-04 07:06 | 51.55231 | -147.25721 | 32012 ft | 517 kts | 275° |
| 2026-05-04 07:07 | 51.57192 | -147.36860 | 32005 ft | 518 kts | 275° |
| 2026-05-04 07:09 | 51.64937 | -147.81558 | 31982 ft | 520 kts | 274° |
| 2026-05-04 07:09 | 51.66856 | -147.92812 | 31979 ft | 521 kts | 274° |
| 2026-05-04 07:10 | 51.68763 | -148.04070 | 31982 ft | 521 kts | 274° |
| 2026-05-04 07:12 | 51.76312 | -148.49362 | 31960 ft | 525 kts | 274° |
| 2026-05-04 07:12 | 51.78182 | -148.60768 | 31955 ft | 525 kts | 273° |
| 2026-05-04 07:13 | 51.80043 | -148.72195 | 31943 ft | 526 kts | 273° |
| 2026-05-04 07:13 | 51.81885 | -148.83585 | 31941 ft | 527 kts | 273° |
| 2026-05-04 07:14 | 51.86479 | -149.12337 | 31927 ft | 529 kts | 273° |
| 2026-05-04 07:15 | 51.88300 | -149.23872 | 31921 ft | 530 kts | 273° |
| 2026-05-04 07:15 | 51.90114 | -149.35443 | 31921 ft | 531 kts | 273° |
| 2026-05-04 07:16 | 51.91909 | -149.46975 | 31909 ft | 531 kts | 273° |
| 2026-05-04 07:16 | 51.93706 | -149.58604 | 31906 ft | 532 kts | 272° |
| 2026-05-04 07:17 | 51.95496 | -149.70267 | 31903 ft | 533 kts | 272° |
| 2026-05-04 07:17 | 51.97273 | -149.81934 | 31901 ft | 533 kts | 272° |
| 2026-05-04 07:18 | 51.99043 | -149.93632 | 31894 ft | 534 kts | 272° |
| 2026-05-04 07:18 | 52.00798 | -150.05373 | 31881 ft | 534 kts | 272° |
| 2026-05-04 07:19 | 52.02478 | -150.17028 | 31877 ft | 534 kts | 272° |
| 2026-05-04 07:19 | 52.04150 | -150.28803 | 31873 ft | 535 kts | 272° |
| 2026-05-04 07:20 | 52.05818 | -150.40601 | 31869 ft | 536 kts | 272° |
| 2026-05-04 07:20 | 52.07483 | -150.52423 | 31859 ft | 536 kts | 272° |
| 2026-05-04 07:22 | 52.14035 | -150.99836 | 31829 ft | 538 kts | 271° |
| 2026-05-04 07:23 | 52.15648 | -151.11750 | 31832 ft | 538 kts | 271° |
| 2026-05-04 07:23 | 52.17248 | -151.23667 | 31833 ft | 539 kts | 271° |
| 2026-05-04 07:24 | 52.18837 | -151.35602 | 31824 ft | 539 kts | 271° |
| 2026-05-04 07:24 | 52.20415 | -151.47552 | 31815 ft | 540 kts | 271° |
| 2026-05-04 07:26 | 52.26620 | -151.95541 | 31797 ft | 541 kts | 272° |
| 2026-05-04 07:27 | 52.28144 | -152.07579 | 31792 ft | 542 kts | 272° |
| 2026-05-04 07:27 | 52.29656 | -152.19637 | 31787 ft | 542 kts | 272° |
| 2026-05-04 07:28 | 52.31148 | -152.31633 | 31787 ft | 542 kts | 272° |
| 2026-05-04 07:28 | 52.32640 | -152.43741 | 31783 ft | 543 kts | 272° |
| 2026-05-04 07:29 | 52.34121 | -152.55870 | 31773 ft | 543 kts | 272° |
| 2026-05-04 07:29 | 52.35588 | -152.67987 | 31768 ft | 544 kts | 272° |
| 2026-05-04 07:30 | 52.37043 | -152.80120 | 31766 ft | 544 kts | 272° |
| 2026-05-04 07:30 | 52.38490 | -152.92297 | 31764 ft | 544 kts | 272° |
| 2026-05-04 07:31 | 52.39912 | -153.04377 | 31761 ft | 544 kts | 272° |
| 2026-05-04 07:33 | 52.45513 | -153.53086 | 31742 ft | 543 kts | 272° |
| 2026-05-04 07:33 | 52.46880 | -153.65269 | 31739 ft | 543 kts | 272° |
| 2026-05-04 07:34 | 52.48232 | -153.77441 | 31739 ft | 542 kts | 272° |
| 2026-05-04 07:34 | 52.49566 | -153.89558 | 31730 ft | 542 kts | 272° |
| 2026-05-04 07:35 | 52.50892 | -154.01730 | 31733 ft | 541 kts | 272° |
| 2026-05-04 07:35 | 52.52204 | -154.13896 | 31725 ft | 541 kts | 272° |
| 2026-05-04 07:36 | 52.53503 | -154.26059 | 31725 ft | 540 kts | 272° |
| 2026-05-04 07:38 | 52.58556 | -154.74623 | 31714 ft | 538 kts | 273° |
| 2026-05-04 07:38 | 52.59787 | -154.86774 | 31710 ft | 538 kts | 273° |
| 2026-05-04 07:39 | 52.61006 | -154.98926 | 31712 ft | 537 kts | 273° |
| 2026-05-04 07:39 | 52.62201 | -155.10974 | 31709 ft | 537 kts | 273° |
| 2026-05-04 07:40 | 52.63392 | -155.23111 | 31707 ft | 536 kts | 273° |
| 2026-05-04 07:40 | 52.64570 | -155.35245 | 31702 ft | 535 kts | 273° |
| 2026-05-04 07:41 | 52.65730 | -155.47336 | 31697 ft | 534 kts | 273° |
| 2026-05-04 07:41 | 52.66879 | -155.59440 | 31695 ft | 533 kts | 273° |
| 2026-05-04 07:42 | 52.68005 | -155.71435 | 31695 ft | 532 kts | 273° |
| 2026-05-04 07:42 | 52.69122 | -155.83477 | 31689 ft | 532 kts | 273° |
| 2026-05-04 07:43 | 52.70228 | -155.95534 | 31691 ft | 531 kts | 273° |
| 2026-05-04 07:43 | 52.71319 | -156.07567 | 31688 ft | 530 kts | 273° |
| 2026-05-04 07:44 | 52.72395 | -156.19578 | 31683 ft | 529 kts | 273° |
| 2026-05-04 07:44 | 52.73458 | -156.31580 | 31681 ft | 528 kts | 273° |
| 2026-05-04 07:45 | 52.74502 | -156.43508 | 31679 ft | 527 kts | 273° |
| 2026-05-04 07:45 | 52.75535 | -156.55457 | 31683 ft | 526 kts | 273° |
| 2026-05-04 07:46 | 52.76557 | -156.67421 | 31676 ft | 525 kts | 273° |
| 2026-05-04 07:46 | 52.77564 | -156.79357 | 31676 ft | 524 kts | 273° |
| 2026-05-04 07:47 | 52.78558 | -156.91291 | 31675 ft | 523 kts | 273° |
| 2026-05-04 07:49 | 52.82235 | -157.36786 | 31672 ft | 519 kts | 273° |
| 2026-05-04 07:49 | 52.83161 | -157.48611 | 31671 ft | 518 kts | 273° |
| 2026-05-04 07:50 | 52.84075 | -157.60425 | 31663 ft | 517 kts | 273° |
| 2026-05-04 07:50 | 52.84968 | -157.72131 | 31668 ft | 516 kts | 273° |
| 2026-05-04 07:51 | 52.85855 | -157.83921 | 31667 ft | 515 kts | 273° |
| 2026-05-04 07:51 | 52.86728 | -157.95678 | 31670 ft | 514 kts | 273° |
| 2026-05-04 07:52 | 52.87589 | -158.07432 | 31670 ft | 514 kts | 273° |
| 2026-05-04 07:52 | 52.88439 | -158.19202 | 31678 ft | 513 kts | 273° |
| 2026-05-04 07:54 | 52.91708 | -158.66110 | 31693 ft | 512 kts | 272° |
| 2026-05-04 07:55 | 52.92496 | -158.77839 | 31701 ft | 512 kts | 272° |
| 2026-05-04 07:55 | 52.93271 | -158.89562 | 31708 ft | 511 kts | 272° |
| 2026-05-04 07:56 | 52.94036 | -159.01296 | 31716 ft | 511 kts | 272° |
| 2026-05-04 07:56 | 52.94788 | -159.13021 | 31720 ft | 511 kts | 272° |
| 2026-05-04 07:57 | 52.95527 | -159.24732 | 31731 ft | 511 kts | 272° |
| 2026-05-04 07:57 | 52.96255 | -159.36454 | 31731 ft | 511 kts | 272° |
| 2026-05-04 07:58 | 52.96972 | -159.48180 | 31748 ft | 511 kts | 272° |
| 2026-05-04 07:58 | 52.97672 | -159.59828 | 31749 ft | 511 kts | 272° |
| 2026-05-04 07:59 | 52.98367 | -159.71576 | 31759 ft | 511 kts | 271° |
| 2026-05-04 07:59 | 52.99051 | -159.83331 | 31769 ft | 511 kts | 271° |
| 2026-05-04 08:00 | 52.99723 | -159.95068 | 31782 ft | 511 kts | 271° |
| 2026-05-04 08:02 | 53.01691 | -160.42099 | 31806 ft | 510 kts | 269° |
| 2026-05-04 08:02 | 53.02136 | -160.53862 | 31813 ft | 510 kts | 269° |
| 2026-05-04 08:03 | 53.02574 | -160.65626 | 31826 ft | 509 kts | 269° |
| 2026-05-04 08:03 | 53.02998 | -160.77350 | 31836 ft | 508 kts | 269° |
| 2026-05-04 08:04 | 53.03408 | -160.89034 | 31828 ft | 506 kts | 269° |
| 2026-05-04 08:04 | 53.03802 | -161.00595 | 31836 ft | 503 kts | 268° |
| 2026-05-04 08:05 | 53.04186 | -161.12200 | 31843 ft | 501 kts | 268° |
| 2026-05-04 08:05 | 53.04556 | -161.23740 | 31850 ft | 499 kts | 268° |
| 2026-05-04 08:06 | 53.04913 | -161.35219 | 31856 ft | 497 kts | 268° |
| 2026-05-04 08:06 | 53.05258 | -161.46681 | 31861 ft | 496 kts | 268° |
| 2026-05-04 08:08 | 53.06525 | -161.92377 | 31889 ft | 495 kts | 268° |
| 2026-05-04 08:11 | 53.07743 | -162.43967 | 31903 ft | 497 kts | 268° |
| 2026-05-04 08:11 | 53.08100 | -162.61135 | 31913 ft | 497 kts | 268° |
| 2026-05-04 08:12 | 53.08325 | -162.72621 | 31916 ft | 497 kts | 268° |
| 2026-05-04 08:12 | 53.08539 | -162.84122 | 31921 ft | 497 kts | 268° |
| 2026-05-04 08:13 | 53.08742 | -162.95605 | 31926 ft | 497 kts | 268° |
| 2026-05-04 08:13 | 53.08933 | -163.07101 | 31917 ft | 497 kts | 268° |
| 2026-05-04 08:14 | 53.09113 | -163.18527 | 31936 ft | 497 kts | 268° |
| 2026-05-04 08:16 | 53.09723 | -163.64461 | 31958 ft | 496 kts | 268° |
| 2026-05-04 08:16 | 53.09847 | -163.75925 | 31953 ft | 495 kts | 268° |
| 2026-05-04 08:17 | 53.09961 | -163.87378 | 31950 ft | 494 kts | 268° |
| 2026-05-04 08:17 | 53.10063 | -163.98807 | 31964 ft | 494 kts | 269° |
| 2026-05-04 08:19 | 53.10361 | -164.44332 | 31980 ft | 490 kts | 269° |
| 2026-05-04 08:20 | 53.10410 | -164.55674 | 31983 ft | 490 kts | 269° |
| 2026-05-04 08:20 | 53.10446 | -164.67006 | 31980 ft | 489 kts | 269° |
| 2026-05-04 08:21 | 53.10472 | -164.78327 | 31983 ft | 488 kts | 270° |
| 2026-05-04 08:21 | 53.10487 | -164.89545 | 31982 ft | 487 kts | 270° |
| 2026-05-04 08:22 | 53.10491 | -165.00802 | 31991 ft | 486 kts | 270° |
| 2026-05-04 08:24 | 53.10403 | -165.45569 | 32000 ft | 481 kts | 271° |
| 2026-05-04 08:24 | 53.10356 | -165.56667 | 32002 ft | 479 kts | 271° |
| 2026-05-04 08:25 | 53.10298 | -165.67753 | 32013 ft | 478 kts | 271° |
| 2026-05-04 08:25 | 53.10230 | -165.78726 | 32002 ft | 477 kts | 271° |
| 2026-05-04 08:27 | 53.09857 | -166.22931 | 32031 ft | 478 kts | 271° |
| 2026-05-04 08:28 | 53.09738 | -166.34007 | 32024 ft | 477 kts | 271° |
| 2026-05-04 08:28 | 53.09609 | -166.44960 | 32032 ft | 476 kts | 272° |
| 2026-05-04 08:29 | 53.09470 | -166.55989 | 32031 ft | 475 kts | 272° |
| 2026-05-04 08:31 | 53.08819 | -166.99615 | 32028 ft | 469 kts | 272° |
| 2026-05-04 08:33 | 53.08056 | -167.40935 | 32035 ft | 465 kts | 273° |
| 2026-05-04 08:35 | 53.07115 | -167.83694 | 32041 ft | 462 kts | 273° |
| 2026-05-04 08:35 | 53.06856 | -167.94376 | 32044 ft | 461 kts | 273° |
| 2026-05-04 08:37 | 53.05878 | -168.31639 | 32056 ft | 461 kts | 272° |
| 2026-05-04 08:38 | 53.05577 | -168.42289 | 32055 ft | 461 kts | 272° |
| 2026-05-04 08:38 | 53.05267 | -168.52934 | 32061 ft | 461 kts | 272° |
| 2026-05-04 08:40 | 53.03927 | -168.95565 | 32058 ft | 463 kts | 271° |
| 2026-05-04 08:41 | 53.03568 | -169.06239 | 32062 ft | 463 kts | 271° |
| 2026-05-04 08:41 | 53.03199 | -169.16904 | 32066 ft | 463 kts | 271° |
| 2026-05-04 08:42 | 53.02823 | -169.27520 | 32071 ft | 463 kts | 270° |
| 2026-05-04 08:42 | 53.02435 | -169.38192 | 32075 ft | 463 kts | 270° |
| 2026-05-04 08:43 | 53.02037 | -169.48871 | 32072 ft | 463 kts | 270° |
| 2026-05-04 08:43 | 53.01629 | -169.59573 | 32078 ft | 464 kts | 270° |
| 2026-05-04 08:44 | 53.01210 | -169.70276 | 32069 ft | 464 kts | 270° |
| 2026-05-04 08:46 | 52.98290 | -170.12861 | 32085 ft | 470 kts | 260° |
| 2026-05-04 08:46 | 52.96780 | -170.23416 | 32084 ft | 470 kts | 260° |
| 2026-05-04 08:47 | 52.95280 | -170.33999 | 32086 ft | 471 kts | 260° |
| 2026-05-04 08:47 | 52.93797 | -170.44520 | 32087 ft | 472 kts | 260° |
| 2026-05-04 08:48 | 52.92296 | -170.55122 | 32088 ft | 472 kts | 260° |
| 2026-05-04 08:48 | 52.90786 | -170.65719 | 32088 ft | 473 kts | 259° |
| 2026-05-04 08:49 | 52.89263 | -170.76331 | 32089 ft | 473 kts | 259° |
| 2026-05-04 08:50 | 52.83856 | -171.13394 | 32089 ft | 475 kts | 258° |
| 2026-05-04 08:51 | 52.82283 | -171.24017 | 32089 ft | 475 kts | 258° |
| 2026-05-04 08:51 | 52.80698 | -171.34648 | 32089 ft | 476 kts | 258° |
| 2026-05-04 08:52 | 52.79103 | -171.45271 | 32088 ft | 476 kts | 258° |
| 2026-05-04 08:52 | 52.77500 | -171.55884 | 32090 ft | 476 kts | 258° |
| 2026-05-04 08:54 | 52.71094 | -171.97593 | 32086 ft | 478 kts | 257° |
| 2026-05-04 08:55 | 52.69717 | -172.06420 | 32089 ft | 478 kts | 257° |
| 2026-05-04 08:55 | 52.68324 | -172.15297 | 32089 ft | 478 kts | 257° |
| 2026-05-04 09:01 | 52.50204 | -173.26735 | 32075 ft | 483 kts | 255° |
| 2026-05-04 09:01 | 52.48421 | -173.37316 | 32075 ft | 484 kts | 255° |
| 2026-05-04 09:02 | 52.47260 | -173.44172 | 32079 ft | 485 kts | 255° |
| 2026-05-04 09:02 | 52.45443 | -173.54850 | 32067 ft | 486 kts | 254° |
| 2026-05-04 09:03 | 52.43613 | -173.65533 | 32071 ft | 487 kts | 254° |
| 2026-05-04 09:03 | 52.41773 | -173.76215 | 32082 ft | 487 kts | 254° |
| 2026-05-04 09:04 | 52.39932 | -173.86836 | 32087 ft | 488 kts | 254° |
| 2026-05-04 09:04 | 52.38064 | -173.97546 | 32081 ft | 489 kts | 253° |
| 2026-05-04 09:05 | 52.36190 | -174.08230 | 32086 ft | 489 kts | 253° |
| 2026-05-04 09:05 | 52.34303 | -174.18921 | 32090 ft | 489 kts | 253° |
| 2026-05-04 09:06 | 52.32404 | -174.29619 | 32097 ft | 490 kts | 253° |
| 2026-05-04 09:08 | 52.24691 | -174.72422 | 32068 ft | 493 kts | 252° |
| 2026-05-04 09:08 | 52.22733 | -174.83142 | 32053 ft | 494 kts | 252° |
| 2026-05-04 09:09 | 52.20753 | -174.93904 | 32051 ft | 494 kts | 252° |
| 2026-05-04 09:09 | 52.18768 | -175.04635 | 32046 ft | 495 kts | 252° |
| 2026-05-04 09:10 | 52.16770 | -175.15369 | 32041 ft | 495 kts | 252° |
| 2026-05-04 09:10 | 52.14764 | -175.26091 | 32039 ft | 496 kts | 252° |
| 2026-05-04 09:11 | 52.12742 | -175.36832 | 32036 ft | 496 kts | 252° |
| 2026-05-04 09:11 | 52.10708 | -175.47582 | 32034 ft | 497 kts | 252° |
| 2026-05-04 09:12 | 52.08665 | -175.58313 | 32034 ft | 497 kts | 251° |
| 2026-05-04 09:14 | 52.00420 | -176.01025 | 32026 ft | 498 kts | 251° |
| 2026-05-04 09:14 | 51.98321 | -176.11742 | 32019 ft | 498 kts | 250° |
| 2026-05-04 09:15 | 51.96213 | -176.22452 | 32015 ft | 498 kts | 250° |
| 2026-05-04 09:15 | 51.94127 | -176.32990 | 32006 ft | 498 kts | 250° |
| 2026-05-04 09:17 | 51.84333 | -176.81075 | 32005 ft | 499 kts | 248° |
| 2026-05-04 09:18 | 51.82005 | -176.91664 | 31994 ft | 499 kts | 248° |
| 2026-05-04 09:18 | 51.79682 | -177.02237 | 31989 ft | 500 kts | 248° |
| 2026-05-04 09:19 | 51.77359 | -177.12816 | 31987 ft | 500 kts | 248° |
| 2026-05-04 09:19 | 51.75026 | -177.23406 | 31979 ft | 500 kts | 248° |
| 2026-05-04 09:20 | 51.73080 | -177.32201 | 31974 ft | 501 kts | 248° |
| 2026-05-04 09:20 | 51.70727 | -177.42779 | 31968 ft | 501 kts | 248° |
| 2026-05-04 09:21 | 51.67981 | -177.55054 | 31969 ft | 501 kts | 247° |
| 2026-05-04 09:21 | 51.65607 | -177.65610 | 31962 ft | 501 kts | 247° |
| 2026-05-04 09:22 | 51.63623 | -177.74390 | 31958 ft | 502 kts | 247° |
| 2026-05-04 09:22 | 51.61227 | -177.84946 | 31952 ft | 502 kts | 247° |
| 2026-05-04 09:23 | 51.58820 | -177.95497 | 31947 ft | 502 kts | 247° |
| 2026-05-04 09:23 | 51.56403 | -178.06040 | 31944 ft | 503 kts | 247° |
| 2026-05-04 09:25 | 51.46607 | -178.48242 | 31923 ft | 505 kts | 246° |
| 2026-05-04 09:26 | 51.44126 | -178.58799 | 31917 ft | 506 kts | 246° |
| 2026-05-04 09:26 | 51.41634 | -178.69354 | 31914 ft | 506 kts | 246° |
| 2026-05-04 09:27 | 51.39153 | -178.79811 | 31904 ft | 505 kts | 245° |
| 2026-05-04 09:27 | 51.36645 | -178.90327 | 31902 ft | 505 kts | 245° |
| 2026-05-04 09:28 | 51.34133 | -179.00817 | 31897 ft | 504 kts | 245° |
| 2026-05-04 09:28 | 51.31612 | -179.11284 | 31888 ft | 504 kts | 245° |
| 2026-05-04 09:29 | 51.29086 | -179.21724 | 31879 ft | 503 kts | 245° |
| 2026-05-04 09:29 | 51.26550 | -179.32154 | 31877 ft | 503 kts | 245° |
| 2026-05-04 09:30 | 51.24008 | -179.42562 | 31871 ft | 503 kts | 245° |
| 2026-05-04 09:30 | 51.21470 | -179.52905 | 31864 ft | 504 kts | 245° |
| 2026-05-04 09:31 | 51.18898 | -179.63337 | 31860 ft | 504 kts | 244° |
| 2026-05-04 09:31 | 51.16320 | -179.73740 | 31854 ft | 505 kts | 245° |
| 2026-05-04 09:32 | 51.13732 | -179.84144 | 31849 ft | 506 kts | 245° |
| 2026-05-04 09:34 | 51.03252 | 179.74233 | 31818 ft | 508 kts | 245° |
| 2026-05-04 09:34 | 51.00597 | 179.63816 | 31829 ft | 509 kts | 245° |
| 2026-05-04 09:35 | 50.97935 | 179.53410 | 31812 ft | 509 kts | 245° |
| 2026-05-04 09:35 | 50.95264 | 179.43030 | 31815 ft | 508 kts | 245° |
| 2026-05-04 09:37 | 50.84522 | 179.01713 | 31783 ft | 507 kts | 244° |
| 2026-05-04 09:38 | 50.81812 | 178.91412 | 31778 ft | 507 kts | 244° |
| 2026-05-04 09:38 | 50.79083 | 178.81090 | 31781 ft | 510 kts | 245° |
| 2026-05-04 09:39 | 50.76324 | 178.70685 | 31771 ft | 515 kts | 245° |
| 2026-05-04 09:39 | 50.73588 | 178.60415 | 31753 ft | 508 kts | 245° |
| 2026-05-04 09:40 | 50.70813 | 178.50060 | 31764 ft | 512 kts | 245° |
| 2026-05-04 09:40 | 50.68050 | 178.39790 | 31750 ft | 506 kts | 245° |
| 2026-05-04 09:42 | 50.56946 | 177.98964 | 31733 ft | 506 kts | 245° |
| 2026-05-04 09:43 | 50.54167 | 177.88862 | 31730 ft | 506 kts | 245° |
| 2026-05-04 09:43 | 50.51370 | 177.78731 | 31721 ft | 504 kts | 245° |
| 2026-05-04 09:44 | 50.48562 | 177.68607 | 31725 ft | 505 kts | 246° |
| 2026-05-04 09:46 | 50.37302 | 177.28440 | 31720 ft | 503 kts | 246° |
| 2026-05-04 09:46 | 50.34470 | 177.18444 | 31694 ft | 500 kts | 246° |
| 2026-05-04 09:47 | 50.31681 | 177.08639 | 31708 ft | 494 kts | 246° |
| 2026-05-04 09:49 | 50.20404 | 176.69410 | 31704 ft | 495 kts | 246° |
| 2026-05-04 09:51 | 50.10419 | 176.35199 | 31690 ft | 496 kts | 246° |
| 2026-05-04 09:51 | 50.07539 | 176.25420 | 31688 ft | 496 kts | 246° |
| 2026-05-04 09:52 | 50.04656 | 176.15666 | 31680 ft | 496 kts | 246° |
| 2026-05-04 09:52 | 50.01754 | 176.05936 | 31683 ft | 496 kts | 244° |
| 2026-05-04 09:53 | 49.98080 | 175.96859 | 31697 ft | 498 kts | 233° |
| 2026-05-04 09:53 | 49.95823 | 175.92747 | 31958 ft | 499 kts | 228° |
| 2026-05-04 09:53 | 49.93456 | 175.88812 | 32383 ft | 497 kts | 228° |
| 2026-05-04 09:53 | 49.91120 | 175.84952 | 32777 ft | 496 kts | 228° |
| 2026-05-04 09:54 | 49.88735 | 175.81009 | 33132 ft | 495 kts | 228° |
| 2026-05-04 09:54 | 49.86411 | 175.77154 | 33434 ft | 495 kts | 228° |
| 2026-05-04 09:54 | 49.84060 | 175.73243 | 33606 ft | 496 kts | 229° |
| 2026-05-04 09:55 | 49.79351 | 175.65391 | 33660 ft | 497 kts | 229° |
| 2026-05-04 09:55 | 49.74655 | 175.57568 | 33655 ft | 494 kts | 229° |
| 2026-05-04 09:56 | 49.69975 | 175.49796 | 33653 ft | 492 kts | 229° |
| 2026-05-04 09:56 | 49.65310 | 175.42075 | 33655 ft | 491 kts | 229° |
| 2026-05-04 09:57 | 49.60669 | 175.34418 | 33648 ft | 491 kts | 229° |
| 2026-05-04 09:57 | 49.55989 | 175.26721 | 33644 ft | 492 kts | 229° |
| 2026-05-04 09:58 | 49.51296 | 175.19024 | 33640 ft | 493 kts | 229° |
| 2026-05-04 09:58 | 49.46587 | 175.11325 | 33639 ft | 494 kts | 229° |
| 2026-05-04 10:00 | 49.27656 | 174.80607 | 33624 ft | 495 kts | 230° |
| 2026-05-04 10:04 | 48.94484 | 174.27651 | 33604 ft | 493 kts | 230° |
| 2026-05-04 10:04 | 48.89719 | 174.20135 | 33604 ft | 493 kts | 230° |
| 2026-05-04 10:05 | 48.84987 | 174.12692 | 33604 ft | 492 kts | 230° |
| 2026-05-04 10:05 | 48.80229 | 174.05229 | 33595 ft | 491 kts | 230° |
| 2026-05-04 10:06 | 48.75474 | 173.97792 | 33592 ft | 490 kts | 230° |
| 2026-05-04 10:06 | 48.70737 | 173.90405 | 33591 ft | 489 kts | 230° |
| 2026-05-04 10:08 | 48.54977 | 173.65979 | 33586 ft | 486 kts | 230° |
| 2026-05-04 10:08 | 48.50251 | 173.58701 | 33594 ft | 485 kts | 230° |
| 2026-05-04 10:09 | 48.45515 | 173.51426 | 33592 ft | 485 kts | 230° |
| 2026-05-04 10:09 | 48.40792 | 173.44193 | 33588 ft | 484 kts | 230° |
| 2026-05-04 10:10 | 48.36092 | 173.37015 | 33591 ft | 484 kts | 231° |
| 2026-05-04 10:10 | 48.31359 | 173.29806 | 33595 ft | 484 kts | 231° |
| 2026-05-04 10:11 | 48.26621 | 173.22611 | 33596 ft | 483 kts | 231° |
| 2026-05-04 10:11 | 48.21886 | 173.15439 | 33598 ft | 483 kts | 231° |
| 2026-05-04 10:12 | 48.17152 | 173.08289 | 33600 ft | 483 kts | 231° |
| 2026-05-04 10:12 | 48.12458 | 173.01220 | 33593 ft | 482 kts | 231° |
| 2026-05-04 10:13 | 48.07715 | 172.94097 | 33592 ft | 482 kts | 231° |
| 2026-05-04 10:13 | 48.02983 | 172.87010 | 33597 ft | 481 kts | 231° |
| 2026-05-04 10:14 | 47.98248 | 172.79937 | 33613 ft | 481 kts | 231° |
| 2026-05-04 10:16 | 47.79357 | 172.51913 | 33614 ft | 478 kts | 231° |
| 2026-05-04 10:16 | 47.74636 | 172.44957 | 33620 ft | 477 kts | 231° |
| 2026-05-04 10:17 | 47.69917 | 172.38023 | 33620 ft | 476 kts | 232° |
| 2026-05-04 10:19 | 47.51159 | 172.10645 | 33635 ft | 471 kts | 232° |
| 2026-05-04 10:19 | 47.46492 | 172.03877 | 33647 ft | 469 kts | 232° |
| 2026-05-04 10:20 | 47.41831 | 171.97135 | 33654 ft | 468 kts | 232° |
| 2026-05-04 10:20 | 47.37172 | 171.90416 | 33655 ft | 467 kts | 232° |
| 2026-05-04 10:21 | 47.32528 | 171.83734 | 33655 ft | 466 kts | 233° |
| 2026-05-04 10:21 | 47.27918 | 171.77118 | 33666 ft | 465 kts | 233° |
| 2026-05-04 10:22 | 47.20960 | 171.67165 | 33677 ft | 464 kts | 233° |
| 2026-05-04 10:23 | 47.16335 | 171.60572 | 33692 ft | 463 kts | 233° |
| 2026-05-04 10:25 | 46.97961 | 171.34543 | 33701 ft | 456 kts | 234° |
| 2026-05-04 10:25 | 46.93396 | 171.28116 | 33712 ft | 454 kts | 234° |
| 2026-05-04 10:26 | 46.88879 | 171.21772 | 33713 ft | 452 kts | 235° |
| 2026-05-04 10:26 | 46.84340 | 171.15412 | 33722 ft | 451 kts | 235° |
| 2026-05-04 10:27 | 46.79815 | 171.09089 | 33722 ft | 450 kts | 235° |
| 2026-05-04 10:27 | 46.75296 | 171.02788 | 33741 ft | 448 kts | 235° |
| 2026-05-04 10:28 | 46.70787 | 170.96517 | 33739 ft | 447 kts | 236° |
| 2026-05-04 10:28 | 46.66283 | 170.90268 | 33748 ft | 446 kts | 236° |
| 2026-05-04 10:29 | 46.61791 | 170.84049 | 33749 ft | 445 kts | 236° |
| 2026-05-04 10:29 | 46.57294 | 170.77841 | 33760 ft | 444 kts | 235° |
| 2026-05-04 10:30 | 46.52838 | 170.71702 | 33767 ft | 444 kts | 235° |
| 2026-05-04 10:30 | 46.48353 | 170.65539 | 33777 ft | 443 kts | 235° |
| 2026-05-04 10:31 | 46.43877 | 170.59401 | 33776 ft | 443 kts | 235° |
| 2026-05-04 10:32 | 46.28208 | 170.38035 | 33803 ft | 441 kts | 234° |
| 2026-05-04 10:33 | 46.23732 | 170.31963 | 33807 ft | 441 kts | 234° |
| 2026-05-04 10:33 | 46.19257 | 170.25907 | 33818 ft | 441 kts | 234° |
| 2026-05-04 10:34 | 46.14808 | 170.19899 | 33818 ft | 440 kts | 234° |
| 2026-05-04 10:34 | 46.10336 | 170.13875 | 33824 ft | 440 kts | 234° |
| 2026-05-04 10:35 | 46.05862 | 170.07860 | 33828 ft | 439 kts | 234° |
| 2026-05-04 10:35 | 46.01384 | 170.01855 | 33846 ft | 439 kts | 234° |
| 2026-05-04 10:36 | 45.97342 | 169.95543 | 33853 ft | 428 kts | 240° |
| 2026-05-04 10:36 | 45.93527 | 169.88966 | 33855 ft | 428 kts | 240° |
| 2026-05-04 10:37 | 45.89688 | 169.82405 | 33852 ft | 429 kts | 239° |
| 2026-05-04 10:37 | 45.85839 | 169.75858 | 33867 ft | 429 kts | 239° |
| 2026-05-04 10:39 | 45.72363 | 169.53063 | 33895 ft | 429 kts | 239° |
| 2026-05-04 10:40 | 45.68499 | 169.46562 | 33888 ft | 428 kts | 239° |
| 2026-05-04 10:40 | 45.64637 | 169.40078 | 33911 ft | 428 kts | 239° |
| 2026-05-04 10:41 | 45.60772 | 169.33605 | 33899 ft | 427 kts | 239° |
| 2026-05-04 10:41 | 45.56937 | 169.27196 | 33926 ft | 427 kts | 238° |
| 2026-05-04 10:42 | 45.53082 | 169.20769 | 33911 ft | 426 kts | 238° |
| 2026-05-04 10:42 | 45.49231 | 169.14364 | 33944 ft | 425 kts | 238° |
| 2026-05-04 10:43 | 45.45383 | 169.07977 | 33938 ft | 424 kts | 238° |
| 2026-05-04 10:45 | 45.30003 | 168.82597 | 33956 ft | 422 kts | 238° |
| 2026-05-04 10:45 | 45.26165 | 168.76300 | 33972 ft | 421 kts | 238° |
| 2026-05-04 10:46 | 45.22321 | 168.70006 | 33967 ft | 421 kts | 238° |
| 2026-05-04 10:46 | 45.18479 | 168.63730 | 33974 ft | 421 kts | 238° |
| 2026-05-04 10:47 | 45.14644 | 168.57480 | 33973 ft | 420 kts | 238° |
| 2026-05-04 10:47 | 45.10809 | 168.51243 | 33993 ft | 419 kts | 238° |
| 2026-05-04 10:49 | 44.95420 | 168.26337 | 33993 ft | 428 kts | 243° |
| 2026-05-04 10:50 | 44.91482 | 168.20004 | 33997 ft | 430 kts | 243° |
| 2026-05-04 10:52 | 44.75715 | 167.94813 | 34004 ft | 426 kts | 242° |
| 2026-05-04 10:52 | 44.71786 | 167.88565 | 34008 ft | 425 kts | 242° |
| 2026-05-04 10:54 | 44.56766 | 167.64799 | 34032 ft | 425 kts | 242° |
| 2026-05-04 10:56 | 44.40983 | 167.40048 | 34038 ft | 427 kts | 241° |
| 2026-05-04 10:57 | 44.37009 | 167.33851 | 34045 ft | 428 kts | 240° |
| 2026-05-04 10:57 | 44.33034 | 167.27667 | 34047 ft | 428 kts | 240° |
| 2026-05-04 10:58 | 44.29054 | 167.21487 | 34052 ft | 428 kts | 240° |
| 2026-05-04 10:58 | 44.25090 | 167.15347 | 34047 ft | 427 kts | 240° |
| 2026-05-04 10:59 | 44.21111 | 167.09196 | 34055 ft | 427 kts | 240° |
| 2026-05-04 10:59 | 44.17131 | 167.03056 | 34057 ft | 426 kts | 240° |
| 2026-05-04 11:00 | 44.13155 | 166.96936 | 34059 ft | 426 kts | 240° |
| 2026-05-04 11:02 | 43.97300 | 166.72662 | 34079 ft | 423 kts | 240° |
| 2026-05-04 11:05 | 43.67314 | 166.27314 | 34096 ft | 427 kts | 239° |
| 2026-05-04 11:06 | 43.63281 | 166.21272 | 34097 ft | 427 kts | 239° |
| 2026-05-04 11:06 | 43.59243 | 166.15233 | 34098 ft | 427 kts | 239° |
| 2026-05-04 11:10 | 43.30877 | 165.73171 | 34109 ft | 430 kts | 238° |
| 2026-05-04 11:12 | 43.14518 | 165.49195 | 34122 ft | 431 kts | 237° |
| 2026-05-04 11:12 | 43.10406 | 165.43200 | 34119 ft | 432 kts | 237° |
| 2026-05-04 11:13 | 43.06293 | 165.37215 | 34121 ft | 432 kts | 237° |
| 2026-05-04 11:13 | 43.02173 | 165.31235 | 34113 ft | 432 kts | 237° |
| 2026-05-04 11:14 | 42.98044 | 165.25253 | 34126 ft | 432 kts | 237° |
| 2026-05-04 11:16 | 42.81531 | 165.01454 | 34119 ft | 432 kts | 236° |
| 2026-05-04 11:16 | 42.77383 | 164.95505 | 34120 ft | 433 kts | 236° |
| 2026-05-04 11:17 | 42.73258 | 164.89603 | 34124 ft | 433 kts | 236° |
| 2026-05-04 11:19 | 42.56574 | 164.65855 | 34127 ft | 436 kts | 236° |
| 2026-05-04 11:19 | 42.52382 | 164.59920 | 34126 ft | 436 kts | 236° |
| 2026-05-04 11:20 | 42.48179 | 164.53980 | 34126 ft | 436 kts | 236° |
| 2026-05-04 11:20 | 42.43965 | 164.48037 | 34124 ft | 437 kts | 236° |
| 2026-05-04 11:22 | 42.27077 | 164.24347 | 34124 ft | 438 kts | 235° |
| 2026-05-04 11:23 | 42.22833 | 164.18423 | 34128 ft | 438 kts | 235° |
| 2026-05-04 11:25 | 42.07948 | 163.97744 | 34131 ft | 440 kts | 234° |
| 2026-05-04 11:25 | 42.03678 | 163.91839 | 34128 ft | 440 kts | 234° |
| 2026-05-04 11:27 | 41.84434 | 163.65379 | 34129 ft | 440 kts | 234° |
| 2026-05-04 11:28 | 41.80141 | 163.59509 | 34128 ft | 440 kts | 234° |
| 2026-05-04 11:28 | 41.75850 | 163.53655 | 34127 ft | 440 kts | 233° |
| 2026-05-04 11:29 | 41.71584 | 163.47845 | 34127 ft | 440 kts | 233° |
| 2026-05-04 11:29 | 41.67295 | 163.42016 | 34126 ft | 439 kts | 233° |
| 2026-05-04 11:33 | 41.37236 | 163.01488 | 34117 ft | 440 kts | 233° |
| 2026-05-04 11:33 | 41.32911 | 162.95704 | 34124 ft | 441 kts | 233° |
| 2026-05-04 11:34 | 41.28580 | 162.89923 | 34119 ft | 441 kts | 233° |
| 2026-05-04 11:34 | 41.24241 | 162.84143 | 34117 ft | 442 kts | 232° |
| 2026-05-04 11:35 | 41.19892 | 162.78362 | 34121 ft | 442 kts | 232° |
| 2026-05-04 11:35 | 41.15531 | 162.72574 | 34118 ft | 443 kts | 232° |
| 2026-05-04 11:36 | 41.11164 | 162.66793 | 34122 ft | 444 kts | 232° |
| 2026-05-04 11:36 | 41.06796 | 162.61021 | 34121 ft | 444 kts | 232° |
| 2026-05-04 11:37 | 41.02467 | 162.55310 | 34120 ft | 444 kts | 232° |
| 2026-05-04 11:37 | 40.98084 | 162.49541 | 34114 ft | 444 kts | 232° |
| 2026-05-04 11:38 | 40.93706 | 162.43790 | 34116 ft | 444 kts | 232° |
| 2026-05-04 11:38 | 40.89323 | 162.38044 | 34116 ft | 443 kts | 232° |
| 2026-05-04 11:39 | 40.84937 | 162.32305 | 34116 ft | 443 kts | 232° |
| 2026-05-04 11:41 | 40.69601 | 162.12325 | 34109 ft | 443 kts | 232° |
| 2026-05-04 11:41 | 40.65211 | 162.06631 | 34110 ft | 443 kts | 232° |
| 2026-05-04 11:42 | 40.60813 | 162.00937 | 34106 ft | 443 kts | 231° |
| 2026-05-04 11:42 | 40.57154 | 161.96209 | 34105 ft | 444 kts | 231° |
| 2026-05-04 11:43 | 40.52024 | 161.89592 | 34112 ft | 444 kts | 231° |
| 2026-05-04 11:43 | 40.48318 | 161.84822 | 34106 ft | 445 kts | 231° |
| 2026-05-04 11:44 | 40.43893 | 161.79136 | 34102 ft | 445 kts | 231° |
| 2026-05-04 11:44 | 40.39489 | 161.73489 | 34096 ft | 446 kts | 231° |
| 2026-05-04 11:45 | 40.35037 | 161.67791 | 34108 ft | 446 kts | 231° |
| 2026-05-04 11:45 | 40.30588 | 161.62109 | 34101 ft | 446 kts | 231° |
| 2026-05-04 11:46 | 40.26168 | 161.56474 | 34101 ft | 446 kts | 231° |
| 2026-05-04 11:46 | 40.21715 | 161.50807 | 34102 ft | 446 kts | 231° |
| 2026-05-04 11:47 | 40.17259 | 161.45148 | 34108 ft | 446 kts | 231° |
| 2026-05-04 11:47 | 40.12803 | 161.39500 | 34103 ft | 446 kts | 230° |